createdAt,value
2022-08-23T00:00:03.905Z,43.34
2022-08-23T00:01:03.839Z,45.92
2022-08-23T00:02:01.856Z,51.72
2022-08-23T00:03:01.943Z,54.79
2022-08-23T00:04:01.863Z,40.44
2022-08-23T00:05:09.424Z,40.61
2022-08-23T00:06:02.818Z,45.60
2022-08-23T00:07:01.811Z,46.08
2022-08-23T00:08:01.976Z,44.96
2022-08-23T00:09:01.915Z,52.69
2022-08-23T00:10:01.792Z,45.28
2022-08-23T00:11:01.828Z,47.05
2022-08-23T00:12:01.877Z,41.41
2022-08-23T00:13:01.754Z,45.28
2022-08-23T00:14:01.797Z,56.24
2022-08-23T00:15:01.778Z,50.92
2022-08-23T00:16:01.761Z,48.34
2022-08-23T00:17:01.755Z,54.30
2022-08-23T00:18:01.969Z,45.60
2022-08-23T00:19:01.717Z,44.79
2022-08-23T00:20:01.767Z,44.31
2022-08-23T00:21:01.705Z,45.28
2022-08-23T00:22:01.716Z,46.89
2022-08-23T00:23:01.682Z,40.61
2022-08-23T00:24:01.696Z,39.96
2022-08-23T00:25:01.715Z,40.12
2022-08-23T00:26:01.679Z,40.28
2022-08-23T00:27:01.678Z,40.61
2022-08-23T00:28:01.874Z,48.50
2022-08-23T00:29:01.666Z,50.43
2022-08-23T00:30:01.678Z,44.31
2022-08-23T00:31:01.682Z,42.70
2022-08-23T00:32:01.637Z,44.31
2022-08-23T00:33:01.660Z,44.63
2022-08-23T00:34:01.649Z,40.93
2022-08-23T00:35:01.608Z,51.72
2022-08-23T00:36:01.608Z,56.88
2022-08-23T00:37:01.619Z,54.14
2022-08-23T00:38:31.715Z,49.15
2022-08-23T00:39:02.575Z,44.31
2022-08-23T00:40:01.666Z,44.31
2022-08-23T00:41:01.596Z,46.25
2022-08-23T00:42:01.551Z,42.38
2022-08-23T00:43:01.592Z,41.25
2022-08-23T00:44:01.562Z,42.70
2022-08-23T00:45:01.562Z,42.70
2022-08-23T00:46:01.553Z,41.25
2022-08-23T00:47:01.542Z,43.67
2022-08-23T00:48:01.895Z,44.31
2022-08-23T00:49:01.513Z,45.76
2022-08-23T00:50:01.533Z,43.34
2022-08-23T00:51:01.513Z,48.02
2022-08-23T00:52:01.522Z,43.34
2022-08-23T00:53:01.542Z,46.57
2022-08-23T00:54:01.510Z,45.44
2022-08-23T00:55:01.481Z,40.93
2022-08-23T00:56:01.493Z,37.54
2022-08-23T00:57:01.483Z,37.87
2022-08-23T00:58:01.623Z,37.54
2022-08-23T00:59:01.492Z,37.71
2022-08-23T01:00:01.454Z,38.67
2022-08-23T01:01:01.434Z,43.83
2022-08-23T01:02:01.596Z,40.61
2022-08-23T01:03:01.443Z,39.16
2022-08-23T01:04:04.758Z,38.83
2022-08-23T01:05:01.403Z,39.16
2022-08-23T01:06:01.446Z,46.41
2022-08-23T01:07:01.398Z,45.44
2022-08-23T01:08:01.778Z,45.92
2022-08-23T01:09:01.386Z,49.47
2022-08-23T01:10:02.490Z,40.12
2022-08-23T01:11:01.408Z,43.02
2022-08-23T01:12:01.419Z,42.54
2022-08-23T01:13:01.390Z,40.77
2022-08-23T01:14:01.362Z,45.28
2022-08-23T01:15:01.376Z,54.62
2022-08-23T01:16:01.336Z,46.08
2022-08-23T01:17:01.327Z,49.15
2022-08-23T01:18:01.446Z,44.96
2022-08-23T01:19:01.315Z,48.18
2022-08-23T01:20:01.452Z,52.05
2022-08-23T01:21:01.334Z,42.22
2022-08-23T01:22:01.353Z,40.93
2022-08-23T01:23:01.309Z,49.47
2022-08-23T01:24:01.290Z,49.31
2022-08-23T01:25:07.618Z,45.44
2022-08-23T01:26:02.282Z,43.51
2022-08-23T01:27:01.276Z,46.25
2022-08-23T01:28:01.459Z,46.41
2022-08-23T01:29:01.233Z,48.18
2022-08-23T01:30:01.263Z,40.61
2022-08-23T01:31:01.268Z,40.12
2022-08-23T01:32:01.223Z,39.80
2022-08-23T01:33:01.221Z,42.38
2022-08-23T01:34:01.199Z,47.21
2022-08-23T01:35:01.229Z,49.15
2022-08-23T01:36:01.254Z,48.02
2022-08-23T01:37:01.189Z,43.02
2022-08-23T01:38:01.492Z,40.93
2022-08-23T01:39:01.185Z,40.28
2022-08-23T01:40:01.221Z,47.86
2022-08-23T01:41:01.200Z,51.40
2022-08-23T01:42:01.155Z,40.61
2022-08-23T01:43:02.171Z,40.12
2022-08-23T01:44:01.165Z,40.12
2022-08-23T01:45:01.138Z,42.38
2022-08-23T01:46:01.145Z,49.63
2022-08-23T01:47:02.150Z,46.57
2022-08-23T01:48:01.450Z,40.93
2022-08-23T01:49:01.861Z,44.63
2022-08-23T01:50:01.100Z,46.57
2022-08-23T01:51:01.097Z,44.63
2022-08-23T01:52:01.152Z,44.63
2022-08-23T01:53:01.461Z,48.66
2022-08-23T01:54:01.092Z,43.02
2022-08-23T01:55:01.083Z,43.34
2022-08-23T01:56:01.081Z,45.12
2022-08-23T01:57:01.088Z,45.76
2022-08-23T01:58:01.062Z,46.89
2022-08-23T01:59:01.019Z,44.79
2022-08-23T02:00:01.026Z,43.02
2022-08-23T02:01:01.031Z,47.05
2022-08-23T02:02:01.072Z,44.63
2022-08-23T02:03:01.250Z,51.08
2022-08-23T02:04:04.806Z,45.44
2022-08-23T02:05:01.043Z,55.43
2022-08-23T02:06:00.981Z,42.86
2022-08-23T02:07:01.005Z,47.05
2022-08-23T02:08:01.162Z,48.82
2022-08-23T02:09:00.988Z,44.15
2022-08-23T02:10:00.999Z,48.18
2022-08-23T02:11:00.972Z,46.41
2022-08-23T02:12:00.963Z,46.73
2022-08-23T02:13:00.928Z,46.08
2022-08-23T02:14:00.960Z,43.18
2022-08-23T02:15:00.929Z,41.73
2022-08-23T02:16:00.932Z,41.89
2022-08-23T02:17:04.396Z,59.30
2022-08-23T02:18:01.155Z,59.62
2022-08-23T02:19:00.914Z,59.30
2022-08-23T02:20:00.926Z,58.33
2022-08-23T02:21:00.910Z,58.65
2022-08-23T02:22:00.909Z,58.33
2022-08-23T02:23:01.056Z,58.97
2022-08-23T02:24:00.918Z,58.81
2022-08-23T02:25:00.942Z,63.00
2022-08-23T02:26:00.865Z,56.88
2022-08-23T02:27:00.892Z,43.83
2022-08-23T02:28:00.883Z,43.99
2022-08-23T02:29:00.868Z,45.28
2022-08-23T02:30:02.035Z,50.76
2022-08-23T02:31:00.902Z,44.79
2022-08-23T02:32:00.860Z,47.05
2022-08-23T02:33:01.054Z,44.47
2022-08-23T02:34:00.865Z,44.79
2022-08-23T02:35:04.912Z,43.99
2022-08-23T02:36:00.832Z,50.76
2022-08-23T02:37:00.786Z,48.02
2022-08-23T02:38:00.963Z,45.12
2022-08-23T02:39:00.816Z,41.57
2022-08-23T02:40:00.848Z,43.83
2022-08-23T02:41:01.207Z,45.28
2022-08-23T02:42:00.772Z,43.83
2022-08-23T02:43:00.763Z,41.57
2022-08-23T02:44:00.738Z,48.82
2022-08-23T02:45:00.741Z,46.41
2022-08-23T02:46:00.779Z,47.70
2022-08-23T02:47:00.741Z,47.53
2022-08-23T02:48:00.876Z,53.82
2022-08-23T02:49:00.714Z,46.57
2022-08-23T02:50:00.762Z,53.66
2022-08-23T02:51:00.722Z,53.50
2022-08-23T02:52:00.700Z,46.89
2022-08-23T02:53:00.697Z,48.18
2022-08-23T02:54:00.753Z,59.30
2022-08-23T02:55:00.731Z,55.59
2022-08-23T02:56:00.717Z,53.66
2022-08-23T02:57:00.709Z,47.21
2022-08-23T02:58:00.867Z,43.99
2022-08-23T02:59:00.760Z,43.83
2022-08-23T03:00:00.651Z,45.12
2022-08-23T03:01:00.655Z,52.69
2022-08-23T03:02:00.678Z,54.95
2022-08-23T03:03:01.657Z,57.20
2022-08-23T03:04:00.670Z,53.98
2022-08-23T03:05:00.611Z,51.88
2022-08-23T03:06:24.524Z,49.47
2022-08-23T03:07:01.620Z,45.76
2022-08-23T03:08:00.742Z,43.67
2022-08-23T03:09:00.633Z,43.34
2022-08-23T03:10:00.615Z,54.14
2022-08-23T03:11:00.599Z,55.59
2022-08-23T03:12:01.576Z,45.28
2022-08-23T03:13:00.593Z,54.62
2022-08-23T03:14:00.567Z,46.89
2022-08-23T03:15:00.564Z,59.14
2022-08-23T03:16:00.587Z,50.27
2022-08-23T03:17:00.569Z,55.43
2022-08-23T03:18:00.721Z,51.72
2022-08-23T03:19:00.561Z,56.88
2022-08-23T03:20:00.529Z,56.56
2022-08-23T03:21:00.561Z,53.98
2022-08-23T03:22:00.539Z,45.92
2022-08-23T03:23:00.512Z,53.01
2022-08-23T03:24:00.722Z,58.81
2022-08-23T03:25:00.519Z,53.50
2022-08-23T03:26:00.525Z,67.03
2022-08-23T03:27:00.499Z,57.69
2022-08-23T03:28:00.584Z,57.04
2022-08-23T03:29:00.487Z,54.62
2022-08-23T03:30:00.470Z,57.36
2022-08-23T03:31:00.503Z,55.43
2022-08-23T03:32:00.470Z,50.92
2022-08-23T03:33:00.483Z,56.40
2022-08-23T03:34:00.508Z,55.43
2022-08-23T03:35:00.471Z,48.02
2022-08-23T03:36:00.462Z,55.75
2022-08-23T03:37:00.420Z,56.07
2022-08-23T03:38:00.624Z,59.78
2022-08-23T03:39:00.460Z,55.91
2022-08-23T03:40:00.511Z,50.60
2022-08-23T03:41:00.416Z,56.88
2022-08-23T03:42:00.475Z,46.89
2022-08-23T03:43:00.389Z,57.36
2022-08-23T03:44:00.413Z,54.62
2022-08-23T03:45:02.399Z,49.15
2022-08-23T03:46:00.366Z,55.75
2022-08-23T03:47:00.400Z,54.62
2022-08-23T03:48:00.434Z,57.20
2022-08-23T03:49:00.386Z,52.05
2022-08-23T03:50:00.355Z,48.82
2022-08-23T03:51:00.327Z,52.37
2022-08-23T03:52:00.345Z,50.92
2022-08-23T03:53:00.358Z,49.79
2022-08-23T03:54:00.320Z,56.24
2022-08-23T03:55:00.342Z,57.85
2022-08-23T03:56:00.310Z,53.82
2022-08-23T03:57:00.310Z,54.14
2022-08-23T03:58:00.351Z,52.37
2022-08-23T03:59:00.313Z,54.30
2022-08-23T04:00:00.331Z,49.47
2022-08-23T04:01:00.293Z,56.56
2022-08-23T04:02:00.372Z,57.36
2022-08-23T04:03:00.298Z,53.98
2022-08-23T04:04:00.317Z,50.60
2022-08-23T04:05:00.286Z,53.82
2022-08-23T04:06:00.270Z,56.88
2022-08-23T04:07:00.237Z,54.30
2022-08-23T04:08:00.428Z,53.17
2022-08-23T04:09:00.234Z,56.07
2022-08-23T04:10:00.236Z,53.17
2022-08-23T04:11:00.248Z,55.75
2022-08-23T04:12:00.233Z,57.20
2022-08-23T04:13:00.239Z,58.01
2022-08-23T04:14:00.209Z,54.79
2022-08-23T04:15:01.666Z,54.95
2022-08-23T04:16:00.185Z,49.63
2022-08-23T04:17:00.202Z,56.88
2022-08-23T04:18:00.403Z,49.79
2022-08-23T04:19:00.170Z,56.56
2022-08-23T04:20:00.156Z,56.07
2022-08-23T04:21:00.141Z,51.40
2022-08-23T04:22:00.179Z,56.56
2022-08-23T04:23:00.151Z,58.65
2022-08-23T04:24:00.144Z,58.33
2022-08-23T04:25:00.147Z,60.91
2022-08-23T04:26:00.167Z,52.85
2022-08-23T04:27:00.139Z,53.98
2022-08-23T04:28:00.429Z,52.69
2022-08-23T04:29:00.083Z,55.91
2022-08-23T04:30:00.119Z,56.72
2022-08-23T04:31:00.127Z,58.01
2022-08-23T04:32:00.094Z,57.04
2022-08-23T04:33:01.648Z,55.91
2022-08-23T04:34:00.742Z,54.62
2022-08-23T04:35:00.042Z,57.69
2022-08-23T04:36:00.046Z,57.85
2022-08-23T04:37:00.053Z,58.49
2022-08-23T04:38:00.253Z,55.11
2022-08-23T04:39:00.072Z,56.88
2022-08-23T04:40:00.092Z,54.14
2022-08-23T04:41:00.015Z,53.50
2022-08-23T04:42:00.031Z,60.26
2022-08-23T04:43:00.090Z,57.69
2022-08-23T04:44:00.034Z,56.88
2022-08-23T04:44:59.993Z,58.33
2022-08-23T04:46:00.004Z,56.24
2022-08-23T04:47:00.025Z,56.88
2022-08-23T04:48:00.219Z,57.04
2022-08-23T04:49:00.051Z,56.40
2022-08-23T04:50:00.079Z,56.24
2022-08-23T04:50:59.969Z,59.14
2022-08-23T04:52:00.017Z,60.91
2022-08-23T04:52:59.974Z,57.20
2022-08-23T04:53:59.975Z,58.81
2022-08-23T04:54:59.958Z,58.65
2022-08-23T04:55:59.940Z,56.07
2022-08-23T04:56:59.927Z,58.17
2022-08-23T04:58:00.128Z,57.85
2022-08-23T04:58:59.946Z,56.88
2022-08-23T04:59:59.943Z,53.01
2022-08-23T05:00:59.968Z,57.20
2022-08-23T05:01:59.886Z,60.26
2022-08-23T05:02:59.906Z,60.91
2022-08-23T05:03:59.901Z,61.39
2022-08-23T05:04:59.921Z,63.00
2022-08-23T05:05:59.903Z,56.88
2022-08-23T05:06:59.864Z,58.33
2022-08-23T05:07:59.973Z,53.50
2022-08-23T05:08:59.862Z,54.95
2022-08-23T05:09:59.873Z,58.33
2022-08-23T05:10:59.882Z,56.56
2022-08-23T05:11:59.874Z,53.17
2022-08-23T05:12:59.830Z,58.33
2022-08-23T05:13:59.869Z,58.33
2022-08-23T05:14:59.849Z,56.88
2022-08-23T05:15:59.857Z,60.26
2022-08-23T05:16:59.841Z,54.14
2022-08-23T05:18:00.986Z,55.11
2022-08-23T05:18:59.805Z,57.04
2022-08-23T05:19:59.783Z,54.14
2022-08-23T05:20:59.822Z,57.36
2022-08-23T05:21:59.793Z,57.04
2022-08-23T05:22:59.762Z,56.07
2022-08-23T05:23:59.918Z,56.24
2022-08-23T05:24:59.841Z,57.20
2022-08-23T05:25:59.766Z,59.30
2022-08-23T05:26:59.786Z,57.52
2022-08-23T05:27:59.900Z,57.52
2022-08-23T05:28:59.732Z,58.65
2022-08-23T05:29:59.765Z,60.91
2022-08-23T05:30:59.752Z,60.75
2022-08-23T05:31:59.769Z,56.07
2022-08-23T05:32:59.747Z,56.40
2022-08-23T05:33:59.722Z,56.88
2022-08-23T05:34:59.742Z,55.75
2022-08-23T05:35:59.724Z,52.69
2022-08-23T05:36:59.716Z,59.78
2022-08-23T05:37:59.875Z,57.52
2022-08-23T05:38:59.734Z,56.40
2022-08-23T05:39:59.794Z,56.72
2022-08-23T05:40:59.884Z,56.88
2022-08-23T05:41:59.687Z,54.62
2022-08-23T05:42:59.682Z,56.72
2022-08-23T05:43:59.659Z,53.82
2022-08-23T05:44:59.698Z,52.53
2022-08-23T05:45:59.693Z,57.20
2022-08-23T05:46:59.689Z,53.66
2022-08-23T05:47:59.638Z,57.20
2022-08-23T05:48:59.647Z,57.20
2022-08-23T05:49:59.629Z,52.53
2022-08-23T05:50:59.639Z,57.20
2022-08-23T05:51:59.652Z,59.30
2022-08-23T05:52:59.602Z,55.43
2022-08-23T05:53:59.623Z,58.81
2022-08-23T05:54:59.606Z,53.66
2022-08-23T05:55:59.580Z,53.01
2022-08-23T05:56:59.574Z,56.07
2022-08-23T05:57:59.650Z,61.23
2022-08-23T05:59:00.128Z,54.46
2022-08-23T06:00:00.572Z,58.01
2022-08-23T06:00:59.592Z,57.36
2022-08-23T06:01:59.547Z,56.24
2022-08-23T06:02:59.567Z,54.62
2022-08-23T06:03:59.564Z,60.59
2022-08-23T06:04:59.550Z,57.20
2022-08-23T06:05:59.563Z,55.75
2022-08-23T06:07:00.555Z,55.11
2022-08-23T06:07:59.757Z,48.66
2022-08-23T06:08:59.625Z,52.21
2022-08-23T06:09:59.522Z,56.56
2022-08-23T06:10:59.581Z,57.04
2022-08-23T06:11:59.491Z,53.17
2022-08-23T06:12:59.472Z,57.04
2022-08-23T06:13:59.568Z,55.11
2022-08-23T06:14:59.491Z,57.52
2022-08-23T06:15:59.539Z,56.72
2022-08-23T06:16:59.466Z,54.79
2022-08-23T06:17:59.606Z,56.07
2022-08-23T06:18:59.517Z,56.56
2022-08-23T06:19:59.502Z,51.72
2022-08-23T06:20:59.435Z,59.78
2022-08-23T06:21:59.464Z,53.17
2022-08-23T06:22:59.404Z,54.14
2022-08-23T06:23:59.458Z,55.11
2022-08-23T06:24:59.408Z,54.46
2022-08-23T06:25:59.396Z,55.59
2022-08-23T06:26:59.441Z,53.17
2022-08-23T06:27:59.663Z,56.24
2022-08-23T06:28:59.406Z,55.27
2022-08-23T06:29:59.391Z,55.59
2022-08-23T06:30:59.439Z,55.59
2022-08-23T06:31:59.430Z,56.56
2022-08-23T06:32:59.431Z,54.30
2022-08-23T06:33:59.409Z,54.30
2022-08-23T06:35:37.580Z,54.30
2022-08-23T06:36:00.399Z,56.24
2022-08-23T06:36:59.357Z,55.27
2022-08-23T06:37:59.432Z,54.46
2022-08-23T06:38:59.360Z,56.24
2022-08-23T06:39:59.350Z,53.82
2022-08-23T06:40:59.302Z,63.16
2022-08-23T06:41:59.310Z,54.95
2022-08-23T06:42:59.336Z,54.95
2022-08-23T06:43:59.308Z,54.62
2022-08-23T06:44:59.276Z,53.82
2022-08-23T06:45:59.281Z,55.43
2022-08-23T06:46:59.297Z,49.63
2022-08-23T06:47:59.277Z,54.14
2022-08-23T06:48:59.258Z,53.82
2022-08-23T06:49:59.333Z,52.21
2022-08-23T06:50:59.247Z,55.11
2022-08-23T06:51:59.230Z,48.66
2022-08-23T06:52:59.242Z,52.21
2022-08-23T06:54:03.079Z,50.92
2022-08-23T06:54:59.238Z,55.27
2022-08-23T06:55:59.194Z,54.14
2022-08-23T06:56:59.183Z,54.95
2022-08-23T06:57:59.443Z,56.07
2022-08-23T06:59:00.247Z,56.56
2022-08-23T06:59:59.172Z,52.69
2022-08-23T07:00:59.239Z,61.71
2022-08-23T07:01:59.272Z,53.66
2022-08-23T07:02:59.408Z,54.14
2022-08-23T07:03:59.147Z,54.14
2022-08-23T07:04:59.175Z,52.37
2022-08-23T07:05:59.166Z,52.53
2022-08-23T07:06:59.168Z,54.95
2022-08-23T07:07:59.110Z,60.42
2022-08-23T07:08:59.140Z,61.71
2022-08-23T07:09:59.155Z,56.24
2022-08-23T07:10:59.089Z,54.46
2022-08-23T07:11:59.084Z,53.50
2022-08-23T07:12:59.301Z,57.20
2022-08-23T07:13:59.099Z,49.63
2022-08-23T07:14:59.094Z,48.82
2022-08-23T07:15:59.141Z,50.92
2022-08-23T07:16:59.052Z,53.82
2022-08-23T07:17:59.086Z,51.56
2022-08-23T07:18:59.087Z,52.53
2022-08-23T07:19:59.040Z,53.66
2022-08-23T07:20:59.052Z,49.63
2022-08-23T07:21:59.038Z,52.53
2022-08-23T07:22:59.143Z,52.53
2022-08-23T07:23:59.016Z,59.62
2022-08-23T07:24:59.100Z,55.91
2022-08-23T07:25:58.990Z,56.72
2022-08-23T07:26:58.973Z,54.62
2022-08-23T07:27:59.028Z,55.59
2022-08-23T07:28:59.003Z,54.79
2022-08-23T07:29:59.041Z,52.37
2022-08-23T07:30:58.955Z,64.78
2022-08-23T07:31:59.021Z,60.10
2022-08-23T07:32:59.046Z,50.76
2022-08-23T07:33:58.983Z,52.53
2022-08-23T07:34:58.971Z,52.21
2022-08-23T07:35:58.957Z,53.33
2022-08-23T07:36:58.975Z,56.07
2022-08-23T07:37:58.916Z,55.75
2022-08-23T07:38:58.916Z,57.52
2022-08-23T07:39:58.954Z,56.07
2022-08-23T07:40:58.930Z,58.17
2022-08-23T07:41:58.879Z,52.53
2022-08-23T07:42:58.907Z,53.33
2022-08-23T07:43:58.874Z,68.48
2022-08-23T07:44:58.897Z,54.46
2022-08-23T07:45:58.880Z,54.30
2022-08-23T07:46:58.849Z,50.92
2022-08-23T07:47:58.924Z,54.14
2022-08-23T07:48:58.849Z,55.27
2022-08-23T07:49:58.830Z,57.52
2022-08-23T07:51:01.257Z,55.11
2022-08-23T07:51:58.903Z,54.46
2022-08-23T07:52:58.840Z,53.50
2022-08-23T07:53:58.798Z,52.69
2022-08-23T07:54:58.819Z,55.11
2022-08-23T07:55:58.809Z,60.75
2022-08-23T07:56:58.815Z,59.14
2022-08-23T07:57:58.829Z,52.53
2022-08-23T07:58:58.846Z,54.46
2022-08-23T07:59:58.802Z,53.33
2022-08-23T08:00:58.739Z,56.88
2022-08-23T08:01:58.832Z,54.14
2022-08-23T08:02:58.827Z,58.17
2022-08-23T08:03:58.787Z,51.56
2022-08-23T08:04:58.777Z,53.50
2022-08-23T08:05:58.741Z,52.53
2022-08-23T08:07:17.601Z,52.85
2022-08-23T08:08:00.848Z,59.62
2022-08-23T08:08:58.750Z,56.72
2022-08-23T08:09:58.734Z,52.21
2022-08-23T08:10:58.715Z,55.59
2022-08-23T08:11:58.723Z,62.04
2022-08-23T08:12:58.703Z,58.17
2022-08-23T08:13:58.718Z,55.91
2022-08-23T08:14:58.702Z,61.23
2022-08-23T08:15:58.718Z,54.46
2022-08-23T08:16:58.857Z,56.56
2022-08-23T08:17:58.709Z,56.72
2022-08-23T08:18:59.774Z,55.43
2022-08-23T08:19:58.762Z,60.59
2022-08-23T08:20:59.637Z,58.65
2022-08-23T08:21:58.623Z,54.30
2022-08-23T08:23:00.543Z,50.92
2022-08-23T08:23:58.629Z,52.85
2022-08-23T08:24:58.676Z,51.08
2022-08-23T08:25:58.658Z,51.40
2022-08-23T08:26:58.597Z,62.68
2022-08-23T08:27:58.625Z,52.53
2022-08-23T08:28:58.594Z,51.40
2022-08-23T08:29:58.679Z,50.27
2022-08-23T08:30:58.682Z,52.21
2022-08-23T08:31:58.573Z,51.40
2022-08-23T08:32:58.645Z,50.43
2022-08-23T08:33:58.574Z,53.66
2022-08-23T08:34:58.566Z,49.47
2022-08-23T08:36:00.506Z,53.33
2022-08-23T08:37:00.057Z,57.36
2022-08-23T08:37:58.538Z,49.47
2022-08-23T08:39:00.730Z,45.44
2022-08-23T08:39:59.583Z,54.14
2022-08-23T08:40:58.604Z,54.46
2022-08-23T08:42:04.519Z,50.27
2022-08-23T08:42:59.664Z,53.98
2022-08-23T08:43:58.514Z,53.17
2022-08-23T08:44:58.499Z,51.40
2022-08-23T08:45:58.808Z,51.56
2022-08-23T08:46:59.207Z,49.31
2022-08-23T08:47:58.589Z,55.43
2022-08-23T08:48:58.516Z,55.11
2022-08-23T08:49:58.468Z,50.27
2022-08-23T08:50:58.440Z,55.43
2022-08-23T08:51:58.442Z,57.85
2022-08-23T08:52:58.502Z,53.01
2022-08-23T08:53:59.834Z,52.69
2022-08-23T08:54:58.419Z,51.08
2022-08-23T08:55:58.461Z,52.53
2022-08-23T08:56:58.421Z,52.69
2022-08-23T08:57:58.496Z,69.13
2022-08-23T08:58:58.494Z,56.72
2022-08-23T08:59:58.399Z,50.92
2022-08-23T09:00:58.414Z,51.56
2022-08-23T09:01:58.495Z,55.27
2022-08-23T09:02:58.515Z,55.59
2022-08-23T09:03:58.368Z,56.07
2022-08-23T09:04:58.386Z,54.95
2022-08-23T09:05:58.428Z,52.85
2022-08-23T09:06:59.008Z,52.85
2022-08-23T09:08:00.800Z,51.40
2022-08-23T09:08:58.377Z,53.33
2022-08-23T09:09:58.333Z,50.92
2022-08-23T09:10:58.602Z,49.31
2022-08-23T09:11:58.797Z,55.91
2022-08-23T09:12:58.351Z,51.72
2022-08-23T09:13:58.326Z,50.76
2022-08-23T09:14:58.342Z,51.08
2022-08-23T09:15:58.334Z,53.82
2022-08-23T09:16:58.303Z,52.69
2022-08-23T09:17:58.364Z,52.37
2022-08-23T09:18:58.295Z,53.66
2022-08-23T09:19:58.309Z,51.08
2022-08-23T09:20:58.265Z,55.91
2022-08-23T09:21:58.322Z,51.40
2022-08-23T09:22:58.248Z,53.17
2022-08-23T09:24:00.458Z,54.95
2022-08-23T09:24:58.269Z,53.01
2022-08-23T09:26:02.678Z,51.08
2022-08-23T09:27:00.261Z,55.11
2022-08-23T09:27:58.288Z,55.59
2022-08-23T09:28:58.255Z,54.14
2022-08-23T09:29:58.207Z,54.30
2022-08-23T09:30:58.309Z,59.14
2022-08-23T09:31:58.341Z,54.62
2022-08-23T09:32:59.238Z,48.82
2022-08-23T09:33:58.180Z,55.59
2022-08-23T09:34:58.195Z,52.69
2022-08-23T09:35:58.267Z,48.98
2022-08-23T09:36:58.211Z,52.21
2022-08-23T09:37:58.223Z,52.85
2022-08-23T09:38:58.232Z,49.79
2022-08-23T09:39:58.189Z,53.17
2022-08-23T09:40:59.195Z,52.21
2022-08-23T09:41:58.172Z,56.24
2022-08-23T09:42:58.130Z,60.59
2022-08-23T09:43:58.137Z,52.85
2022-08-23T09:44:58.132Z,53.50
2022-08-23T09:45:58.242Z,52.21
2022-08-23T09:46:58.133Z,51.72
2022-08-23T09:47:58.160Z,59.78
2022-08-23T09:48:58.156Z,62.68
2022-08-23T09:49:58.127Z,63.65
2022-08-23T09:50:58.113Z,54.62
2022-08-23T09:51:58.191Z,54.14
2022-08-23T09:52:58.237Z,57.85
2022-08-23T09:53:58.073Z,77.18
2022-08-23T09:54:59.216Z,66.71
2022-08-23T09:55:58.094Z,65.26
2022-08-23T09:56:58.060Z,57.04
2022-08-23T09:57:58.115Z,55.75
2022-08-23T09:58:58.064Z,50.76
2022-08-23T09:59:58.055Z,52.69
2022-08-23T10:00:58.057Z,56.40
2022-08-23T10:01:58.165Z,55.59
2022-08-23T10:02:58.337Z,55.27
2022-08-23T10:03:58.101Z,54.95
2022-08-23T10:04:58.037Z,55.75
2022-08-23T10:05:58.039Z,55.11
2022-08-23T10:06:57.994Z,52.37
2022-08-23T10:07:58.014Z,54.62
2022-08-23T10:08:58.001Z,51.08
2022-08-23T10:09:58.001Z,53.50
2022-08-23T10:10:57.963Z,59.30
2022-08-23T10:11:57.960Z,53.66
2022-08-23T10:12:58.016Z,52.85
2022-08-23T10:13:57.985Z,51.40
2022-08-23T10:14:57.984Z,54.62
2022-08-23T10:15:58.063Z,54.62
2022-08-23T10:16:58.902Z,52.21
2022-08-23T10:17:58.008Z,54.14
2022-08-23T10:18:57.944Z,52.53
2022-08-23T10:19:57.957Z,49.47
2022-08-23T10:20:57.954Z,52.53
2022-08-23T10:21:57.916Z,60.75
2022-08-23T10:22:57.959Z,52.05
2022-08-23T10:23:57.943Z,51.56
2022-08-23T10:24:57.905Z,54.95
2022-08-23T10:25:57.937Z,54.79
2022-08-23T10:26:57.906Z,51.56
2022-08-23T10:27:57.917Z,60.10
2022-08-23T10:28:58.969Z,59.46
2022-08-23T10:29:57.872Z,51.08
2022-08-23T10:30:57.944Z,54.14
2022-08-23T10:31:59.310Z,60.91
2022-08-23T10:32:58.839Z,53.33
2022-08-23T10:33:57.833Z,51.56
2022-08-23T10:34:57.861Z,53.66
2022-08-23T10:35:57.840Z,52.21
2022-08-23T10:36:57.860Z,53.50
2022-08-23T10:37:57.874Z,49.79
2022-08-23T10:38:57.810Z,53.66
2022-08-23T10:40:01.598Z,59.62
2022-08-23T10:40:59.798Z,50.60
2022-08-23T10:41:58.104Z,49.31
2022-08-23T10:42:57.828Z,50.60
2022-08-23T10:43:57.834Z,54.14
2022-08-23T10:44:57.788Z,58.17
2022-08-23T10:46:00.334Z,51.72
2022-08-23T10:46:58.796Z,53.66
2022-08-23T10:47:57.903Z,53.01
2022-08-23T10:48:57.760Z,54.30
2022-08-23T10:49:57.729Z,49.15
2022-08-23T10:50:57.796Z,52.21
2022-08-23T10:51:57.721Z,52.21
2022-08-23T10:52:57.704Z,52.53
2022-08-23T10:53:57.769Z,52.69
2022-08-23T10:54:57.704Z,56.07
2022-08-23T10:55:57.755Z,53.01
2022-08-23T10:56:57.738Z,48.34
2022-08-23T10:57:57.715Z,52.05
2022-08-23T10:58:57.726Z,50.92
2022-08-23T10:59:57.706Z,49.79
2022-08-23T11:00:57.662Z,48.82
2022-08-23T11:01:57.693Z,50.76
2022-08-23T11:02:57.736Z,52.37
2022-08-23T11:03:57.683Z,52.53
2022-08-23T11:04:57.652Z,50.60
2022-08-23T11:05:57.627Z,66.71
2022-08-23T11:06:57.644Z,52.69
2022-08-23T11:07:58.624Z,52.21
2022-08-23T11:08:57.598Z,55.75
2022-08-23T11:09:57.647Z,53.17
2022-08-23T11:10:57.595Z,51.08
2022-08-23T11:11:57.568Z,52.85
2022-08-23T11:12:57.605Z,51.08
2022-08-23T11:13:57.568Z,51.40
2022-08-23T11:14:57.568Z,53.01
2022-08-23T11:15:57.613Z,51.72
2022-08-23T11:16:57.562Z,51.40
2022-08-23T11:17:57.683Z,58.49
2022-08-23T11:18:57.556Z,49.31
2022-08-23T11:19:57.629Z,53.66
2022-08-23T11:20:57.545Z,48.02
2022-08-23T11:21:57.548Z,50.60
2022-08-23T11:22:57.530Z,49.31
2022-08-23T11:23:57.525Z,52.69
2022-08-23T11:24:57.523Z,51.40
2022-08-23T11:25:57.518Z,49.63
2022-08-23T11:26:57.545Z,47.70
2022-08-23T11:27:57.492Z,54.62
2022-08-23T11:28:57.485Z,56.56
2022-08-23T11:29:57.469Z,48.34
2022-08-23T11:30:57.571Z,54.14
2022-08-23T11:31:57.485Z,51.40
2022-08-23T11:32:57.457Z,51.08
2022-08-23T11:33:57.419Z,51.24
2022-08-23T11:34:57.424Z,51.08
2022-08-23T11:35:58.425Z,47.86
2022-08-23T11:36:57.441Z,56.24
2022-08-23T11:37:57.468Z,53.01
2022-08-23T11:38:57.426Z,50.27
2022-08-23T11:39:57.474Z,51.40
2022-08-23T11:40:57.381Z,57.20
2022-08-23T11:41:57.376Z,49.47
2022-08-23T11:42:57.398Z,51.40
2022-08-23T11:43:57.400Z,50.60
2022-08-23T11:44:57.377Z,49.31
2022-08-23T11:45:57.408Z,50.11
2022-08-23T11:46:57.352Z,48.02
2022-08-23T11:47:57.433Z,51.88
2022-08-23T11:48:57.380Z,49.15
2022-08-23T11:49:57.345Z,50.60
2022-08-23T11:50:59.469Z,51.40
2022-08-23T11:51:58.342Z,48.98
2022-08-23T11:52:57.305Z,52.53
2022-08-23T11:53:57.403Z,53.66
2022-08-23T11:54:57.320Z,49.47
2022-08-23T11:55:57.288Z,54.46
2022-08-23T11:56:57.318Z,51.56
2022-08-23T11:57:57.348Z,50.92
2022-08-23T11:58:57.295Z,50.60
2022-08-23T11:59:57.281Z,50.76
2022-08-23T12:00:57.290Z,53.66
2022-08-23T12:01:57.321Z,54.62
2022-08-23T12:02:57.359Z,50.11
2022-08-23T12:03:57.400Z,51.08
2022-08-23T12:04:57.287Z,51.24
2022-08-23T12:05:57.236Z,52.69
2022-08-23T12:06:57.271Z,53.33
2022-08-23T12:07:57.251Z,51.72
2022-08-23T12:08:57.213Z,50.60
2022-08-23T12:09:57.233Z,50.60
2022-08-23T12:10:57.182Z,59.14
2022-08-23T12:11:57.234Z,67.19
2022-08-23T12:12:57.185Z,59.30
2022-08-23T12:13:57.202Z,57.20
2022-08-23T12:14:57.199Z,57.36
2022-08-23T12:15:57.203Z,54.62
2022-08-23T12:16:57.194Z,54.30
2022-08-23T12:17:57.164Z,54.62
2022-08-23T12:18:57.122Z,70.25
2022-08-23T12:19:57.168Z,55.75
2022-08-23T12:20:57.245Z,51.56
2022-08-23T12:21:57.162Z,50.43
2022-08-23T12:22:57.100Z,52.05
2022-08-23T12:23:57.090Z,52.53
2022-08-23T12:24:57.073Z,47.21
2022-08-23T12:25:57.099Z,53.17
2022-08-23T12:26:57.076Z,51.88
2022-08-23T12:27:57.149Z,53.33
2022-08-23T12:28:57.070Z,53.82
2022-08-23T12:29:57.257Z,50.60
2022-08-23T12:30:57.146Z,55.11
2022-08-23T12:31:57.053Z,63.81
2022-08-23T12:32:57.102Z,60.91
2022-08-23T12:33:57.059Z,56.24
2022-08-23T12:34:57.076Z,50.60
2022-08-23T12:35:57.130Z,55.11
2022-08-23T12:36:57.010Z,50.60
2022-08-23T12:37:57.025Z,59.94
2022-08-23T12:38:57.085Z,52.21
2022-08-23T12:39:57.076Z,51.88
2022-08-23T12:40:57.003Z,50.92
2022-08-23T12:41:56.991Z,50.43
2022-08-23T12:42:57.120Z,50.92
2022-08-23T12:43:57.013Z,53.98
2022-08-23T12:44:56.969Z,48.34
2022-08-23T12:45:57.061Z,52.21
2022-08-23T12:46:56.962Z,50.11
2022-08-23T12:47:56.946Z,50.27
2022-08-23T12:48:56.960Z,51.72
2022-08-23T12:49:56.962Z,52.37
2022-08-23T12:50:56.954Z,57.69
2022-08-23T12:51:56.917Z,54.95